Hutchinson, MN (55350)

1:32 PM CDT on July 27, 2016 (GMT -0500)
Hutchinson High School | | Change Station

Elev 1060 ft 44.88 °N, 94.39 °W | Updated 2 minutes ago

Overcast
Overcast
74.8 °F
Feels Like 74 °F
N
3.0
Wind Variable Wind from North
Gusts 4.0 mph

Today
High -- | Low -- °F
--% Chance of Precip.
Yesterday
High -- | Low -- °F
Precip. -- in
Pressure 29.99 in
Visibility 10.0 miles
Clouds Scattered Clouds 1200 ft
Mostly Cloudy 3300 ft
Overcast 4100 ft
Heat Index 74 °F
Dew Point 70 °F
Humidity 86%
Rainfall 0.00 in
Snow Depth Not available.
5:58 AM 8:49 PM
Last Quarter, 41% visible
METAR KHCD 271813Z AUTO 32008KT 10SM SCT012 BKN033 OVC041 24/21 A2999 RMK AO2 T02350211
Pressure 29.99 in
Visibility 10.0 miles
Clouds Scattered Clouds 1200 ft
Mostly Cloudy 3300 ft
Overcast 4100 ft
Heat Index 74 °F
Dew Point 70 °F
Humidity 86%
Rainfall 0.00 in
Snow Depth Not available.
5:58 AM 8:49 PM
Last Quarter, 41% visible
METAR KHCD 271813Z AUTO 32008KT 10SM SCT012 BKN033 OVC041 24/21 A2999 RMK AO2 T02350211

10-Day Weather Forecast

Almanac

Astronomy

Jul. 27, 2016 Rise Set
Actual Time
Civil Twilight
Nautical Twilight
Astronomical Twilight
Moon
Length of Visible Light
Length of Day
Tomorrow will be .
, % of the Moon is Illuminated

Today's Extremes

State Highs State Lows

Community

WunderPhotos

Upload Photos

1,927,894 photos uploaded!

WunderBlog® & News

Nearby

Air Quality

  Air Quality AQ Index Pollutant
Not available.

Snow Depth

Station Depth Elevation

Earthquake Activity

City Distance Mag. Time & Date
Minimum magnitude displayed is 2.5.

Coastal Water Temperatures

Place Temperature

Stations

Nearby Weather Stations

Station Location Temp. Windchill Dew Point Humidity Wind Precip. Elev Updated Type
                   

Watches & Warnings

There are currently no watches in effect.